Itabuna, Brazil
Current Conditions -  °F | °C
As of 8:00 AM on Saturday 20 Dec 2014 (Local Time) from SBIL Reporting Station
Scattered Clouds Scattered Clouds  
Wind Chill: 79°   Ceiling: Unl
Heat Index: 82°   Visibility: 6mi
Dew Point: 75°   Wind: 7mph
Humidity: 89%   Direction: 10°N
Pressure: 29.97"   Gusts: NA
Location:  14.79°S, 39.28°W
Report Text: SBIL 201100Z 01006KT 9999 FEW025 SCT100 26/24 Q1015
Loading
Personal Weather Stations






























Interactive Weather Map New forecast layout! Learn more

10-Day Weather Forecast

Advertisements
Track Severe Weather on mobile